sensor_id;sensor_type;location;lat;lon;timestamp;P1;durP1;ratioP1;P2;durP2;ratioP2
65636;SDS011;52327;42.622;23.316;2024-03-06T00:02:23;2.20;;;1.33;;
65636;SDS011;52327;42.622;23.316;2024-03-06T00:04:49;3.60;;;1.88;;
65636;SDS011;52327;42.622;23.316;2024-03-06T00:07:14;2.22;;;1.65;;
65636;SDS011;52327;42.622;23.316;2024-03-06T00:09:40;4.72;;;2.00;;
65636;SDS011;52327;42.622;23.316;2024-03-06T00:12:05;1.30;;;0.85;;
65636;SDS011;52327;42.622;23.316;2024-03-06T00:14:31;2.25;;;1.33;;
65636;SDS011;52327;42.622;23.316;2024-03-06T00:17:01;2.00;;;0.68;;
65636;SDS011;52327;42.622;23.316;2024-03-06T00:19:29;3.20;;;1.65;;
65636;SDS011;52327;42.622;23.316;2024-03-06T00:21:55;0.98;;;0.98;;
65636;SDS011;52327;42.622;23.316;2024-03-06T00:24:20;1.85;;;1.17;;
65636;SDS011;52327;42.622;23.316;2024-03-06T00:26:48;2.55;;;1.70;;
65636;SDS011;52327;42.622;23.316;2024-03-06T00:29:13;2.90;;;1.88;;
65636;SDS011;52327;42.622;23.316;2024-03-06T00:31:45;2.00;;;1.55;;
65636;SDS011;52327;42.622;23.316;2024-03-06T00:34:12;0.70;;;0.70;;
65636;SDS011;52327;42.622;23.316;2024-03-06T00:36:42;3.13;;;1.65;;
65636;SDS011;52327;42.622;23.316;2024-03-06T00:39:11;1.38;;;1.25;;
65636;SDS011;52327;42.622;23.316;2024-03-06T00:41:39;2.95;;;1.33;;
65636;SDS011;52327;42.622;23.316;2024-03-06T00:44:05;2.28;;;1.00;;
65636;SDS011;52327;42.622;23.316;2024-03-06T00:46:33;0.98;;;0.98;;
65636;SDS011;52327;42.622;23.316;2024-03-06T00:48:58;1.10;;;1.05;;
65636;SDS011;52327;42.622;23.316;2024-03-06T00:51:24;3.45;;;1.60;;
65636;SDS011;52327;42.622;23.316;2024-03-06T00:53:49;3.03;;;1.77;;
65636;SDS011;52327;42.622;23.316;2024-03-06T00:56:15;4.28;;;2.30;;
65636;SDS011;52327;42.622;23.316;2024-03-06T00:58:40;3.60;;;2.53;;
65636;SDS011;52327;42.622;23.316;2024-03-06T01:01:05;2.33;;;2.10;;
65636;SDS011;52327;42.622;23.316;2024-03-06T01:03:31;1.75;;;1.40;;
65636;SDS011;52327;42.622;23.316;2024-03-06T01:05:57;2.58;;;1.58;;
65636;SDS011;52327;42.622;23.316;2024-03-06T01:08:23;2.22;;;1.58;;
65636;SDS011;52327;42.622;23.316;2024-03-06T01:10:50;2.42;;;1.63;;
65636;SDS011;52327;42.622;23.316;2024-03-06T01:13:16;3.03;;;2.20;;
65636;SDS011;52327;42.622;23.316;2024-03-06T01:15:42;2.83;;;1.65;;
65636;SDS011;52327;42.622;23.316;2024-03-06T01:18:07;3.00;;;1.90;;
65636;SDS011;52327;42.622;23.316;2024-03-06T01:20:34;3.20;;;1.92;;
65636;SDS011;52327;42.622;23.316;2024-03-06T01:22:59;3.13;;;1.80;;
65636;SDS011;52327;42.622;23.316;2024-03-06T01:25:24;1.02;;;0.93;;
65636;SDS011;52327;42.622;23.316;2024-03-06T01:27:50;2.20;;;1.95;;
65636;SDS011;52327;42.622;23.316;2024-03-06T01:30:15;2.20;;;2.00;;
65636;SDS011;52327;42.622;23.316;2024-03-06T01:32:41;4.65;;;2.88;;
65636;SDS011;52327;42.622;23.316;2024-03-06T01:35:06;2.17;;;1.40;;
65636;SDS011;52327;42.622;23.316;2024-03-06T01:37:32;1.02;;;1.02;;
65636;SDS011;52327;42.622;23.316;2024-03-06T01:39:58;1.60;;;1.45;;
65636;SDS011;52327;42.622;23.316;2024-03-06T01:42:23;2.13;;;1.65;;
65636;SDS011;52327;42.622;23.316;2024-03-06T01:44:49;2.78;;;1.77;;
65636;SDS011;52327;42.622;23.316;2024-03-06T01:47:15;3.88;;;1.95;;
65636;SDS011;52327;42.622;23.316;2024-03-06T01:49:40;1.30;;;1.20;;
65636;SDS011;52327;42.622;23.316;2024-03-06T01:52:07;3.58;;;1.08;;
65636;SDS011;52327;42.622;23.316;2024-03-06T01:54:37;3.08;;;1.75;;
65636;SDS011;52327;42.622;23.316;2024-03-06T01:57:03;4.20;;;2.05;;
65636;SDS011;52327;42.622;23.316;2024-03-06T01:59:29;4.30;;;1.83;;
65636;SDS011;52327;42.622;23.316;2024-03-06T02:01:58;2.03;;;1.63;;
65636;SDS011;52327;42.622;23.316;2024-03-06T02:04:26;2.53;;;1.35;;
65636;SDS011;52327;42.622;23.316;2024-03-06T02:06:53;2.22;;;1.25;;
65636;SDS011;52327;42.622;23.316;2024-03-06T02:09:22;2.63;;;2.20;;
65636;SDS011;52327;42.622;23.316;2024-03-06T02:11:48;3.33;;;1.48;;
65636;SDS011;52327;42.622;23.316;2024-03-06T02:14:15;1.27;;;1.17;;
65636;SDS011;52327;42.622;23.316;2024-03-06T02:16:41;4.20;;;1.23;;
65636;SDS011;52327;42.622;23.316;2024-03-06T02:19:09;2.28;;;1.67;;
65636;SDS011;52327;42.622;23.316;2024-03-06T02:21:34;1.55;;;1.38;;
65636;SDS011;52327;42.622;23.316;2024-03-06T02:24:00;1.38;;;1.02;;
65636;SDS011;52327;42.622;23.316;2024-03-06T02:26:26;1.95;;;1.23;;
65636;SDS011;52327;42.622;23.316;2024-03-06T02:28:52;1.42;;;1.25;;
65636;SDS011;52327;42.622;23.316;2024-03-06T02:31:20;1.40;;;1.33;;
65636;SDS011;52327;42.622;23.316;2024-03-06T02:33:47;0.75;;;0.75;;
65636;SDS011;52327;42.622;23.316;2024-03-06T02:36:16;5.63;;;1.42;;
65636;SDS011;52327;42.622;23.316;2024-03-06T02:38:42;0.88;;;0.88;;
65636;SDS011;52327;42.622;23.316;2024-03-06T02:41:08;3.63;;;1.52;;
65636;SDS011;52327;42.622;23.316;2024-03-06T02:43:38;3.60;;;1.88;;
65636;SDS011;52327;42.622;23.316;2024-03-06T02:46:07;1.27;;;0.85;;
65636;SDS011;52327;42.622;23.316;2024-03-06T02:48:33;0.88;;;0.85;;
65636;SDS011;52327;42.622;23.316;2024-03-06T02:50:58;1.77;;;1.60;;
65636;SDS011;52327;42.622;23.316;2024-03-06T02:53:24;2.17;;;1.95;;
65636;SDS011;52327;42.622;23.316;2024-03-06T02:55:52;4.30;;;1.55;;
65636;SDS011;52327;42.622;23.316;2024-03-06T02:58:18;5.80;;;2.33;;
65636;SDS011;52327;42.622;23.316;2024-03-06T03:00:49;2.47;;;1.60;;
65636;SDS011;52327;42.622;23.316;2024-03-06T03:03:14;1.92;;;1.63;;
65636;SDS011;52327;42.622;23.316;2024-03-06T03:05:40;3.55;;;2.22;;
65636;SDS011;52327;42.622;23.316;2024-03-06T03:08:06;0.88;;;0.88;;
65636;SDS011;52327;42.622;23.316;2024-03-06T03:10:31;1.30;;;1.00;;
65636;SDS011;52327;42.622;23.316;2024-03-06T03:13:02;2.63;;;1.02;;
65636;SDS011;52327;42.622;23.316;2024-03-06T03:15:30;2.13;;;1.45;;
65636;SDS011;52327;42.622;23.316;2024-03-06T03:17:55;1.77;;;1.45;;
65636;SDS011;52327;42.622;23.316;2024-03-06T03:20:20;1.17;;;1.08;;
65636;SDS011;52327;42.622;23.316;2024-03-06T03:22:48;1.02;;;0.95;;
65636;SDS011;52327;42.622;23.316;2024-03-06T03:25:14;2.05;;;1.02;;
65636;SDS011;52327;42.622;23.316;2024-03-06T03:27:39;3.08;;;2.17;;
65636;SDS011;52327;42.622;23.316;2024-03-06T03:30:09;2.67;;;1.80;;
65636;SDS011;52327;42.622;23.316;2024-03-06T03:32:35;2.35;;;1.52;;
65636;SDS011;52327;42.622;23.316;2024-03-06T03:35:04;4.80;;;1.73;;
65636;SDS011;52327;42.622;23.316;2024-03-06T03:37:30;1.23;;;0.90;;
65636;SDS011;52327;42.622;23.316;2024-03-06T03:39:56;0.90;;;0.70;;
65636;SDS011;52327;42.622;23.316;2024-03-06T03:42:21;3.85;;;1.65;;
65636;SDS011;52327;42.622;23.316;2024-03-06T03:44:47;1.45;;;0.98;;
65636;SDS011;52327;42.622;23.316;2024-03-06T03:47:15;1.38;;;1.17;;
65636;SDS011;52327;42.622;23.316;2024-03-06T03:49:40;0.75;;;0.75;;
65636;SDS011;52327;42.622;23.316;2024-03-06T03:52:08;2.05;;;1.27;;
65636;SDS011;52327;42.622;23.316;2024-03-06T03:54:33;2.75;;;1.15;;
65636;SDS011;52327;42.622;23.316;2024-03-06T03:57:00;1.88;;;1.40;;
65636;SDS011;52327;42.622;23.316;2024-03-06T03:59:25;1.30;;;0.95;;
65636;SDS011;52327;42.622;23.316;2024-03-06T04:01:51;2.05;;;1.15;;
65636;SDS011;52327;42.622;23.316;2024-03-06T04:04:16;2.92;;;1.77;;
65636;SDS011;52327;42.622;23.316;2024-03-06T04:06:42;0.98;;;0.82;;
65636;SDS011;52327;42.622;23.316;2024-03-06T04:09:10;1.67;;;1.20;;
65636;SDS011;52327;42.622;23.316;2024-03-06T04:11:36;2.97;;;1.23;;
65636;SDS011;52327;42.622;23.316;2024-03-06T04:14:03;2.55;;;1.35;;
65636;SDS011;52327;42.622;23.316;2024-03-06T04:16:29;3.42;;;2.05;;
65636;SDS011;52327;42.622;23.316;2024-03-06T04:18:54;1.85;;;1.70;;
65636;SDS011;52327;42.622;23.316;2024-03-06T04:21:20;1.00;;;0.90;;
65636;SDS011;52327;42.622;23.316;2024-03-06T04:23:45;1.83;;;1.52;;
65636;SDS011;52327;42.622;23.316;2024-03-06T04:26:11;1.70;;;1.38;;
65636;SDS011;52327;42.622;23.316;2024-03-06T04:28:36;2.80;;;1.73;;
65636;SDS011;52327;42.622;23.316;2024-03-06T04:31:02;2.03;;;1.40;;
65636;SDS011;52327;42.622;23.316;2024-03-06T04:33:27;1.80;;;1.42;;
65636;SDS011;52327;42.622;23.316;2024-03-06T04:35:53;4.53;;;1.05;;
65636;SDS011;52327;42.622;23.316;2024-03-06T04:38:18;3.50;;;1.67;;
65636;SDS011;52327;42.622;23.316;2024-03-06T04:40:44;2.60;;;1.83;;
65636;SDS011;52327;42.622;23.316;2024-03-06T04:43:10;1.77;;;1.60;;
65636;SDS011;52327;42.622;23.316;2024-03-06T04:45:36;1.02;;;0.90;;
65636;SDS011;52327;42.622;23.316;2024-03-06T04:48:01;2.45;;;1.85;;
65636;SDS011;52327;42.622;23.316;2024-03-06T04:50:27;3.92;;;1.58;;
65636;SDS011;52327;42.622;23.316;2024-03-06T04:52:52;2.25;;;1.60;;
65636;SDS011;52327;42.622;23.316;2024-03-06T04:55:18;5.15;;;1.77;;
65636;SDS011;52327;42.622;23.316;2024-03-06T04:57:47;3.63;;;2.03;;
65636;SDS011;52327;42.622;23.316;2024-03-06T05:00:13;1.55;;;1.45;;
65636;SDS011;52327;42.622;23.316;2024-03-06T05:02:39;2.30;;;1.77;;
65636;SDS011;52327;42.622;23.316;2024-03-06T05:05:07;2.28;;;1.10;;
65636;SDS011;52327;42.622;23.316;2024-03-06T05:07:35;3.63;;;1.10;;
65636;SDS011;52327;42.622;23.316;2024-03-06T05:10:01;1.35;;;0.95;;
65636;SDS011;52327;42.622;23.316;2024-03-06T05:12:27;2.80;;;1.13;;
65636;SDS011;52327;42.622;23.316;2024-03-06T05:14:53;2.28;;;1.10;;
65636;SDS011;52327;42.622;23.316;2024-03-06T05:17:20;2.47;;;1.17;;
65636;SDS011;52327;42.622;23.316;2024-03-06T05:19:48;1.13;;;1.00;;
65636;SDS011;52327;42.622;23.316;2024-03-06T05:22:15;1.42;;;1.33;;
65636;SDS011;52327;42.622;23.316;2024-03-06T05:24:41;2.00;;;1.52;;
65636;SDS011;52327;42.622;23.316;2024-03-06T05:27:07;2.17;;;1.40;;
65636;SDS011;52327;42.622;23.316;2024-03-06T05:29:34;0.70;;;0.55;;
65636;SDS011;52327;42.622;23.316;2024-03-06T05:32:01;0.82;;;0.82;;
65636;SDS011;52327;42.622;23.316;2024-03-06T05:34:27;1.35;;;1.25;;
65636;SDS011;52327;42.622;23.316;2024-03-06T05:36:52;2.67;;;1.75;;
65636;SDS011;52327;42.622;23.316;2024-03-06T05:39:17;1.95;;;1.25;;
65636;SDS011;52327;42.622;23.316;2024-03-06T05:41:43;1.85;;;1.67;;
65636;SDS011;52327;42.622;23.316;2024-03-06T05:44:09;2.17;;;1.20;;
65636;SDS011;52327;42.622;23.316;2024-03-06T05:46:34;3.83;;;2.22;;
65636;SDS011;52327;42.622;23.316;2024-03-06T05:49:01;3.83;;;2.08;;
65636;SDS011;52327;42.622;23.316;2024-03-06T05:51:27;5.32;;;2.22;;
65636;SDS011;52327;42.622;23.316;2024-03-06T05:53:52;3.17;;;2.88;;
65636;SDS011;52327;42.622;23.316;2024-03-06T05:56:18;4.72;;;2.83;;
65636;SDS011;52327;42.622;23.316;2024-03-06T05:58:43;2.35;;;2.03;;
65636;SDS011;52327;42.622;23.316;2024-03-06T06:01:11;4.05;;;1.67;;
65636;SDS011;52327;42.622;23.316;2024-03-06T06:03:40;2.70;;;2.03;;
65636;SDS011;52327;42.622;23.316;2024-03-06T06:06:06;5.43;;;2.75;;
65636;SDS011;52327;42.622;23.316;2024-03-06T06:08:33;5.38;;;1.70;;
65636;SDS011;52327;42.622;23.316;2024-03-06T06:10:59;2.63;;;1.63;;
65636;SDS011;52327;42.622;23.316;2024-03-06T06:13:25;2.28;;;2.05;;
65636;SDS011;52327;42.622;23.316;2024-03-06T06:15:50;2.42;;;2.10;;
65636;SDS011;52327;42.622;23.316;2024-03-06T06:18:16;3.00;;;1.67;;
65636;SDS011;52327;42.622;23.316;2024-03-06T06:20:41;3.20;;;2.63;;
65636;SDS011;52327;42.622;23.316;2024-03-06T06:23:07;5.70;;;3.30;;
65636;SDS011;52327;42.622;23.316;2024-03-06T06:25:33;2.95;;;2.53;;
65636;SDS011;52327;42.622;23.316;2024-03-06T06:27:59;4.43;;;2.80;;
65636;SDS011;52327;42.622;23.316;2024-03-06T06:30:24;3.90;;;3.15;;
65636;SDS011;52327;42.622;23.316;2024-03-06T06:32:50;8.32;;;4.43;;
65636;SDS011;52327;42.622;23.316;2024-03-06T06:35:15;3.80;;;2.83;;
65636;SDS011;52327;42.622;23.316;2024-03-06T06:37:41;5.25;;;4.75;;
65636;SDS011;52327;42.622;23.316;2024-03-06T06:40:07;5.15;;;3.78;;
65636;SDS011;52327;42.622;23.316;2024-03-06T06:42:33;7.43;;;4.88;;
65636;SDS011;52327;42.622;23.316;2024-03-06T06:44:59;4.95;;;3.53;;
65636;SDS011;52327;42.622;23.316;2024-03-06T06:47:25;7.97;;;5.30;;
65636;SDS011;52327;42.622;23.316;2024-03-06T06:49:51;5.65;;;3.95;;
65636;SDS011;52327;42.622;23.316;2024-03-06T06:52:17;7.25;;;3.83;;
65636;SDS011;52327;42.622;23.316;2024-03-06T06:54:42;7.45;;;4.60;;
65636;SDS011;52327;42.622;23.316;2024-03-06T06:57:09;3.85;;;2.92;;
65636;SDS011;52327;42.622;23.316;2024-03-06T06:59:34;5.18;;;3.72;;
65636;SDS011;52327;42.622;23.316;2024-03-06T07:02:00;7.30;;;4.60;;
65636;SDS011;52327;42.622;23.316;2024-03-06T07:04:27;7.30;;;4.55;;
65636;SDS011;52327;42.622;23.316;2024-03-06T07:06:52;4.35;;;3.50;;
65636;SDS011;52327;42.622;23.316;2024-03-06T07:09:18;7.18;;;4.15;;
65636;SDS011;52327;42.622;23.316;2024-03-06T07:11:44;6.63;;;4.47;;
65636;SDS011;52327;42.622;23.316;2024-03-06T07:14:10;6.15;;;4.10;;
65636;SDS011;52327;42.622;23.316;2024-03-06T07:16:43;7.43;;;4.13;;
65636;SDS011;52327;42.622;23.316;2024-03-06T07:19:09;8.13;;;4.38;;
65636;SDS011;52327;42.622;23.316;2024-03-06T07:21:34;4.70;;;3.60;;
65636;SDS011;52327;42.622;23.316;2024-03-06T07:24:00;5.38;;;3.38;;
65636;SDS011;52327;42.622;23.316;2024-03-06T07:26:25;5.70;;;2.72;;
65636;SDS011;52327;42.622;23.316;2024-03-06T07:28:51;5.47;;;3.35;;
65636;SDS011;52327;42.622;23.316;2024-03-06T07:31:17;8.52;;;3.17;;
65636;SDS011;52327;42.622;23.316;2024-03-06T07:33:43;6.50;;;3.70;;
65636;SDS011;52327;42.622;23.316;2024-03-06T07:36:08;18.00;;;4.43;;
65636;SDS011;52327;42.622;23.316;2024-03-06T07:38:34;5.05;;;3.15;;
65636;SDS011;52327;42.622;23.316;2024-03-06T07:40:59;4.25;;;2.85;;
65636;SDS011;52327;42.622;23.316;2024-03-06T07:43:25;6.88;;;4.18;;
65636;SDS011;52327;42.622;23.316;2024-03-06T07:45:51;7.85;;;3.35;;
65636;SDS011;52327;42.622;23.316;2024-03-06T07:48:17;3.95;;;2.95;;
65636;SDS011;52327;42.622;23.316;2024-03-06T07:50:42;6.75;;;3.17;;
65636;SDS011;52327;42.622;23.316;2024-03-06T07:53:08;6.40;;;3.45;;
65636;SDS011;52327;42.622;23.316;2024-03-06T07:55:33;4.47;;;3.20;;
65636;SDS011;52327;42.622;23.316;2024-03-06T07:57:58;6.90;;;4.43;;
65636;SDS011;52327;42.622;23.316;2024-03-06T08:00:24;5.35;;;3.63;;
65636;SDS011;52327;42.622;23.316;2024-03-06T08:02:49;6.40;;;3.50;;
65636;SDS011;52327;42.622;23.316;2024-03-06T08:05:17;5.35;;;4.70;;
65636;SDS011;52327;42.622;23.316;2024-03-06T08:07:43;7.88;;;4.03;;
65636;SDS011;52327;42.622;23.316;2024-03-06T08:10:10;6.30;;;3.90;;
65636;SDS011;52327;42.622;23.316;2024-03-06T08:12:42;3.78;;;2.70;;
65636;SDS011;52327;42.622;23.316;2024-03-06T08:15:09;7.68;;;3.35;;
65636;SDS011;52327;42.622;23.316;2024-03-06T08:17:36;4.57;;;3.63;;
65636;SDS011;52327;42.622;23.316;2024-03-06T08:20:03;6.53;;;3.53;;
65636;SDS011;52327;42.622;23.316;2024-03-06T08:22:33;5.45;;;4.15;;
65636;SDS011;52327;42.622;23.316;2024-03-06T08:25:04;5.97;;;4.35;;
65636;SDS011;52327;42.622;23.316;2024-03-06T08:27:34;4.18;;;2.88;;
65636;SDS011;52327;42.622;23.316;2024-03-06T08:30:00;5.65;;;3.40;;
65636;SDS011;52327;42.622;23.316;2024-03-06T08:32:25;6.15;;;3.45;;
65636;SDS011;52327;42.622;23.316;2024-03-06T08:34:50;4.47;;;3.55;;
65636;SDS011;52327;42.622;23.316;2024-03-06T08:37:16;5.90;;;3.65;;
65636;SDS011;52327;42.622;23.316;2024-03-06T08:39:41;5.20;;;4.07;;
65636;SDS011;52327;42.622;23.316;2024-03-06T08:42:07;5.00;;;3.25;;
65636;SDS011;52327;42.622;23.316;2024-03-06T08:44:33;6.78;;;3.92;;
65636;SDS011;52327;42.622;23.316;2024-03-06T08:46:58;4.63;;;2.88;;
65636;SDS011;52327;42.622;23.316;2024-03-06T08:49:24;6.78;;;3.03;;
65636;SDS011;52327;42.622;23.316;2024-03-06T08:51:50;5.45;;;3.38;;
65636;SDS011;52327;42.622;23.316;2024-03-06T08:54:15;6.38;;;4.18;;
65636;SDS011;52327;42.622;23.316;2024-03-06T08:56:42;4.93;;;3.22;;
65636;SDS011;52327;42.622;23.316;2024-03-06T08:59:09;5.47;;;2.88;;
65636;SDS011;52327;42.622;23.316;2024-03-06T09:01:34;4.78;;;3.30;;
65636;SDS011;52327;42.622;23.316;2024-03-06T09:03:59;4.57;;;3.33;;
65636;SDS011;52327;42.622;23.316;2024-03-06T09:06:25;5.35;;;3.50;;
65636;SDS011;52327;42.622;23.316;2024-03-06T09:08:50;6.55;;;3.28;;
65636;SDS011;52327;42.622;23.316;2024-03-06T09:11:16;4.05;;;3.25;;
65636;SDS011;52327;42.622;23.316;2024-03-06T09:13:41;6.38;;;3.47;;
65636;SDS011;52327;42.622;23.316;2024-03-06T09:16:06;8.93;;;4.50;;
65636;SDS011;52327;42.622;23.316;2024-03-06T09:18:32;4.22;;;3.25;;
65636;SDS011;52327;42.622;23.316;2024-03-06T09:20:57;8.07;;;4.15;;
65636;SDS011;52327;42.622;23.316;2024-03-06T09:23:23;4.65;;;2.80;;
65636;SDS011;52327;42.622;23.316;2024-03-06T09:25:48;4.25;;;3.45;;
65636;SDS011;52327;42.622;23.316;2024-03-06T09:28:14;4.07;;;3.47;;
65636;SDS011;52327;42.622;23.316;2024-03-06T09:30:39;7.43;;;4.65;;
65636;SDS011;52327;42.622;23.316;2024-03-06T09:33:06;4.25;;;3.28;;
65636;SDS011;52327;42.622;23.316;2024-03-06T09:35:32;10.90;;;5.15;;
65636;SDS011;52327;42.622;23.316;2024-03-06T09:37:57;6.07;;;4.43;;
65636;SDS011;52327;42.622;23.316;2024-03-06T09:40:23;6.40;;;3.90;;
65636;SDS011;52327;42.622;23.316;2024-03-06T09:42:49;6.88;;;4.78;;
65636;SDS011;52327;42.622;23.316;2024-03-06T09:45:15;5.50;;;3.60;;
65636;SDS011;52327;42.622;23.316;2024-03-06T09:47:41;4.10;;;3.33;;
65636;SDS011;52327;42.622;23.316;2024-03-06T09:50:08;6.93;;;4.32;;
65636;SDS011;52327;42.622;23.316;2024-03-06T09:52:34;17.70;;;3.85;;
65636;SDS011;52327;42.622;23.316;2024-03-06T09:55:01;4.47;;;3.35;;
65636;SDS011;52327;42.622;23.316;2024-03-06T09:57:27;4.10;;;3.15;;
65636;SDS011;52327;42.622;23.316;2024-03-06T09:59:53;7.60;;;4.72;;
65636;SDS011;52327;42.622;23.316;2024-03-06T10:03:04;6.38;;;5.03;;
65636;SDS011;52327;42.622;23.316;2024-03-06T10:05:23;4.40;;;3.50;;
65636;SDS011;52327;42.622;23.316;2024-03-06T10:07:52;7.22;;;4.32;;
65636;SDS011;52327;42.622;23.316;2024-03-06T10:10:21;7.18;;;3.80;;
65636;SDS011;52327;42.622;23.316;2024-03-06T10:12:48;9.50;;;3.72;;
65636;SDS011;52327;42.622;23.316;2024-03-06T10:15:14;5.35;;;3.97;;
65636;SDS011;52327;42.622;23.316;2024-03-06T10:17:40;5.70;;;3.50;;
65636;SDS011;52327;42.622;23.316;2024-03-06T10:23:00;4.82;;;3.88;;
65636;SDS011;52327;42.622;23.316;2024-03-06T10:25:26;7.05;;;3.78;;
65636;SDS011;52327;42.622;23.316;2024-03-06T10:28:03;8.32;;;4.30;;
65636;SDS011;52327;42.622;23.316;2024-03-06T10:30:35;8.32;;;4.55;;
65636;SDS011;52327;42.622;23.316;2024-03-06T10:33:02;4.13;;;2.45;;
65636;SDS011;52327;42.622;23.316;2024-03-06T10:35:41;3.65;;;3.00;;
65636;SDS011;52327;42.622;23.316;2024-03-06T10:38:09;6.63;;;4.00;;
65636;SDS011;52327;42.622;23.316;2024-03-06T10:40:40;5.28;;;3.40;;
65636;SDS011;52327;42.622;23.316;2024-03-06T10:43:07;7.72;;;3.50;;
65636;SDS011;52327;42.622;23.316;2024-03-06T10:50:39;6.43;;;3.33;;
65636;SDS011;52327;42.622;23.316;2024-03-06T10:53:09;6.15;;;2.92;;
65636;SDS011;52327;42.622;23.316;2024-03-06T10:55:39;7.00;;;2.67;;
65636;SDS011;52327;42.622;23.316;2024-03-06T10:58:09;3.28;;;2.15;;
65636;SDS011;52327;42.622;23.316;2024-03-06T11:00:36;3.70;;;2.97;;
65636;SDS011;52327;42.622;23.316;2024-03-06T11:03:07;5.78;;;2.55;;
65636;SDS011;52327;42.622;23.316;2024-03-06T11:05:36;5.28;;;2.38;;
65636;SDS011;52327;42.622;23.316;2024-03-06T11:08:05;3.83;;;2.33;;
65636;SDS011;52327;42.622;23.316;2024-03-06T11:10:34;3.72;;;2.58;;
65636;SDS011;52327;42.622;23.316;2024-03-06T11:13:01;5.22;;;3.05;;
65636;SDS011;52327;42.622;23.316;2024-03-06T11:15:28;3.83;;;1.98;;
65636;SDS011;52327;42.622;23.316;2024-03-06T11:17:55;4.90;;;1.95;;
65636;SDS011;52327;42.622;23.316;2024-03-06T11:20:20;3.25;;;2.58;;
65636;SDS011;52327;42.622;23.316;2024-03-06T11:28:17;2.20;;;1.60;;
65636;SDS011;52327;42.622;23.316;2024-03-06T11:30:46;3.58;;;1.88;;
65636;SDS011;52327;42.622;23.316;2024-03-06T11:33:23;3.88;;;2.03;;
65636;SDS011;52327;42.622;23.316;2024-03-06T11:39:00;3.00;;;1.88;;
65636;SDS011;52327;42.622;23.316;2024-03-06T11:44:20;2.45;;;1.88;;
65636;SDS011;52327;42.622;23.316;2024-03-06T11:46:48;5.00;;;2.45;;
65636;SDS011;52327;42.622;23.316;2024-03-06T11:49:29;7.45;;;2.50;;
65636;SDS011;52327;42.622;23.316;2024-03-06T11:52:02;3.50;;;2.42;;
65636;SDS011;52327;42.622;23.316;2024-03-06T11:54:30;3.10;;;2.50;;
65636;SDS011;52327;42.622;23.316;2024-03-06T11:56:57;3.15;;;1.67;;
65636;SDS011;52327;42.622;23.316;2024-03-06T11:59:25;3.53;;;2.45;;
65636;SDS011;52327;42.622;23.316;2024-03-06T12:02:09;2.97;;;2.30;;
65636;SDS011;52327;42.622;23.316;2024-03-06T12:04:36;3.20;;;2.05;;
65636;SDS011;52327;42.622;23.316;2024-03-06T12:07:05;2.65;;;2.10;;
65636;SDS011;52327;42.622;23.316;2024-03-06T12:09:35;2.63;;;1.57;;
65636;SDS011;52327;42.622;23.316;2024-03-06T12:12:01;2.08;;;1.75;;
65636;SDS011;52327;42.622;23.316;2024-03-06T12:14:28;7.90;;;2.55;;
65636;SDS011;52327;42.622;23.316;2024-03-06T12:16:57;2.75;;;2.08;;
65636;SDS011;52327;42.622;23.316;2024-03-06T12:19:26;2.50;;;1.88;;
65636;SDS011;52327;42.622;23.316;2024-03-06T12:22:01;3.53;;;2.63;;
65636;SDS011;52327;42.622;23.316;2024-03-06T12:24:30;2.80;;;2.03;;
65636;SDS011;52327;42.622;23.316;2024-03-06T12:27:02;3.90;;;2.47;;
65636;SDS011;52327;42.622;23.316;2024-03-06T12:29:29;3.42;;;2.25;;
65636;SDS011;52327;42.622;23.316;2024-03-06T12:31:57;3.53;;;2.05;;
65636;SDS011;52327;42.622;23.316;2024-03-06T12:34:25;2.60;;;2.25;;
65636;SDS011;52327;42.622;23.316;2024-03-06T12:36:51;3.97;;;2.67;;
65636;SDS011;52327;42.622;23.316;2024-03-06T12:39:16;5.50;;;2.22;;
65636;SDS011;52327;42.622;23.316;2024-03-06T12:41:51;2.95;;;1.83;;
65636;SDS011;52327;42.622;23.316;2024-03-06T12:44:18;3.17;;;2.08;;
65636;SDS011;52327;42.622;23.316;2024-03-06T12:46:44;2.58;;;1.95;;
65636;SDS011;52327;42.622;23.316;2024-03-06T12:49:10;2.63;;;1.95;;
65636;SDS011;52327;42.622;23.316;2024-03-06T12:51:35;3.42;;;2.30;;
65636;SDS011;52327;42.622;23.316;2024-03-06T12:54:01;4.35;;;2.00;;
65636;SDS011;52327;42.622;23.316;2024-03-06T12:56:28;1.98;;;1.65;;
65636;SDS011;52327;42.622;23.316;2024-03-06T12:58:53;3.47;;;2.15;;
65636;SDS011;52327;42.622;23.316;2024-03-06T13:01:19;5.93;;;2.20;;
65636;SDS011;52327;42.622;23.316;2024-03-06T13:03:45;3.47;;;1.95;;
65636;SDS011;52327;42.622;23.316;2024-03-06T13:06:10;2.38;;;1.33;;
65636;SDS011;52327;42.622;23.316;2024-03-06T13:08:36;3.50;;;2.05;;
65636;SDS011;52327;42.622;23.316;2024-03-06T13:11:01;3.40;;;1.55;;
65636;SDS011;52327;42.622;23.316;2024-03-06T13:13:27;3.03;;;1.75;;
65636;SDS011;52327;42.622;23.316;2024-03-06T13:15:55;3.85;;;2.28;;
65636;SDS011;52327;42.622;23.316;2024-03-06T13:18:21;2.25;;;1.73;;
65636;SDS011;52327;42.622;23.316;2024-03-06T13:20:46;2.28;;;1.42;;
65636;SDS011;52327;42.622;23.316;2024-03-06T13:23:12;6.05;;;1.85;;
65636;SDS011;52327;42.622;23.316;2024-03-06T13:25:38;3.28;;;1.73;;
65636;SDS011;52327;42.622;23.316;2024-03-06T13:28:04;3.25;;;1.95;;
65636;SDS011;52327;42.622;23.316;2024-03-06T13:30:30;2.00;;;1.58;;
65636;SDS011;52327;42.622;23.316;2024-03-06T13:32:55;2.50;;;1.70;;
65636;SDS011;52327;42.622;23.316;2024-03-06T13:35:21;2.50;;;1.65;;
65636;SDS011;52327;42.622;23.316;2024-03-06T13:37:46;3.45;;;2.33;;
65636;SDS011;52327;42.622;23.316;2024-03-06T13:40:12;3.60;;;1.73;;
65636;SDS011;52327;42.622;23.316;2024-03-06T13:42:42;1.95;;;1.38;;
65636;SDS011;52327;42.622;23.316;2024-03-06T13:45:08;2.45;;;1.60;;
65636;SDS011;52327;42.622;23.316;2024-03-06T13:47:37;1.08;;;1.02;;
65636;SDS011;52327;42.622;23.316;2024-03-06T13:50:15;3.55;;;1.85;;
65636;SDS011;52327;42.622;23.316;2024-03-06T13:52:42;2.75;;;1.80;;
65636;SDS011;52327;42.622;23.316;2024-03-06T13:55:08;1.77;;;1.67;;
65636;SDS011;52327;42.622;23.316;2024-03-06T13:57:35;0.80;;;0.65;;
65636;SDS011;52327;42.622;23.316;2024-03-06T14:00:05;1.73;;;1.20;;
65636;SDS011;52327;42.622;23.316;2024-03-06T14:02:42;2.70;;;1.67;;
65636;SDS011;52327;42.622;23.316;2024-03-06T14:05:08;1.25;;;1.02;;
65636;SDS011;52327;42.622;23.316;2024-03-06T14:07:33;2.13;;;1.80;;
65636;SDS011;52327;42.622;23.316;2024-03-06T14:09:59;2.47;;;1.52;;
65636;SDS011;52327;42.622;23.316;2024-03-06T14:12:25;10.18;;;1.95;;
65636;SDS011;52327;42.622;23.316;2024-03-06T14:14:51;3.28;;;1.90;;
65636;SDS011;52327;42.622;23.316;2024-03-06T14:17:16;2.22;;;1.60;;
65636;SDS011;52327;42.622;23.316;2024-03-06T14:19:41;3.63;;;2.08;;
65636;SDS011;52327;42.622;23.316;2024-03-06T14:22:07;2.08;;;1.48;;
65636;SDS011;52327;42.622;23.316;2024-03-06T14:24:33;4.53;;;1.92;;
65636;SDS011;52327;42.622;23.316;2024-03-06T14:26:59;2.70;;;1.67;;
65636;SDS011;52327;42.622;23.316;2024-03-06T14:29:24;2.33;;;1.52;;
65636;SDS011;52327;42.622;23.316;2024-03-06T14:31:52;3.53;;;1.73;;
65636;SDS011;52327;42.622;23.316;2024-03-06T14:34:17;2.28;;;1.50;;
65636;SDS011;52327;42.622;23.316;2024-03-06T14:36:42;2.92;;;1.73;;
65636;SDS011;52327;42.622;23.316;2024-03-06T14:39:08;2.45;;;1.50;;
65636;SDS011;52327;42.622;23.316;2024-03-06T14:41:35;5.13;;;1.65;;
65636;SDS011;52327;42.622;23.316;2024-03-06T14:44:01;2.00;;;1.30;;
65636;SDS011;52327;42.622;23.316;2024-03-06T14:46:27;1.63;;;1.48;;
65636;SDS011;52327;42.622;23.316;2024-03-06T14:48:53;2.40;;;1.63;;
65636;SDS011;52327;42.622;23.316;2024-03-06T14:51:19;2.05;;;1.33;;